Goleta, California
Current Conditions -  °F | °C
As of 4:53 PM on Tuesday 27 Jan 2015 (Local Time) from KSBA Reporting Station
Few Clouds Few Clouds  
Wind Chill: 63°   Ceiling: Unl
Heat Index: 63°   Visibility: 10mi
Dew Point: 53°   Wind: 9mph
Humidity: 70%   Direction: 270°W
Pressure: 30.16"   Gusts: NA
Location:  34.44°N, 119.83°W
Report Text: KSBA 280053Z 27008KT 10SM FEW050 17/12 A3016 RMK AO2 SLP213 T01720117
Loading
Personal Weather Stations






























Interactive Weather Map New forecast layout! Learn more

10-Day Weather Forecast

Advertisements
Track Severe Weather on mobile